KLKU

Louisa County / Freeman Field Airport

Louisa, Virginia, USA
METAR KLKU 241215Z AUTO 22004KT 4SM BR CLR 11/11 A3018 RMK AO2 T01090105
Observed Flight Rules
Feb-24 @ 12:15 UTC (7 minutes ago) Marginal Visual Flight Rules
Wind Visibility Clouds Conditions
220° at 4 knots 4 miles
  • Clear skies
  • Mist
Temperatures Readings
Current 11°C / 52°F
Dewpoint 11°C / 52°F
Humidity 100%
Altimeter 30.18" Hg
Pressure 1022 hPa
Elevation 150
METAR KLKU 241215Z AUTO 22004KT 4SM BR CLR 11/11 A3018 RMK AO2 T01090105
Observed Flight Rules
Feb-24 @ 12:15 UTC
(7 minutes ago)
MVFR
Wind Visibility
220° at 4 knots 4 miles
Clouds
  • Clear skies
Conditions
  • Mist
Temperature Dewpoint
11°C / 52°F 11°C / 52°F
Humidity Altimeter Pressure
100% 30.18" Hg 1022 hPa